createdAt,value
2023-05-11T00:04:24.599Z,98533.88
2023-05-11T00:09:32.647Z,98538.75
2023-05-11T00:14:37.828Z,98535.13
2023-05-11T00:19:42.859Z,98524.25
2023-05-11T00:24:50.536Z,98529.72
2023-05-11T00:29:55.656Z,98531.88
2023-05-11T00:35:00.687Z,98528.34
2023-05-11T00:40:09.871Z,98521.00
2023-05-11T00:45:14.969Z,98533.19
2023-05-11T00:50:21.613Z,98532.63
2023-05-11T00:55:30.498Z,98531.84
2023-05-11T01:00:37.888Z,98534.03
2023-05-11T01:05:51.680Z,98540.31
2023-05-11T01:11:06.121Z,98533.41
2023-05-11T01:16:17.381Z,98530.56
2023-05-11T01:21:22.991Z,98526.22
2023-05-11T01:26:48.315Z,98534.22
2023-05-11T01:32:02.950Z,98533.88
2023-05-11T01:37:13.762Z,98537.97
2023-05-11T01:42:23.388Z,98534.38
2023-05-11T01:47:33.450Z,98542.19
2023-05-11T01:52:41.139Z,98542.50
2023-05-11T01:57:47.280Z,98534.66
2023-05-11T02:02:59.561Z,98537.50
2023-05-11T02:08:09.100Z,98539.53
2023-05-11T02:13:14.507Z,98540.34
2023-05-11T02:18:23.836Z,98544.25
2023-05-11T02:23:37.313Z,98546.13
2023-05-11T02:28:44.016Z,98543.31
2023-05-11T02:33:53.383Z,98539.53
2023-05-11T02:39:05.665Z,98540.81
2023-05-11T02:44:16.456Z,98546.28
2023-05-11T02:49:28.561Z,98544.56
2023-05-11T02:54:35.675Z,98550.66
2023-05-11T02:59:41.189Z,98543.94
2023-05-11T03:04:49.053Z,98552.06
2023-05-11T03:09:54.322Z,98549.72
2023-05-11T03:15:01.375Z,98547.22
2023-05-11T03:20:13.234Z,98552.53
2023-05-11T03:25:20.293Z,98543.94
2023-05-11T03:30:26.191Z,98543.13
2023-05-11T03:35:38.202Z,98545.31
2023-05-11T03:40:44.938Z,98549.56
2023-05-11T03:45:53.774Z,98549.88
2023-05-11T03:51:03.647Z,98555.94
2023-05-11T03:56:11.234Z,98554.22
2023-05-11T04:01:16.895Z,98554.88
2023-05-11T04:06:24.746Z,98553.00
2023-05-11T04:11:40.372Z,98550.03
2023-05-11T04:16:45.727Z,98553.34
2023-05-11T04:21:53.478Z,98547.84
2023-05-11T04:27:01.622Z,98550.50
2023-05-11T04:32:07.439Z,98545.59
2023-05-11T04:37:15.285Z,98552.91
2023-05-11T04:42:22.616Z,98556.22
2023-05-11T04:47:33.388Z,98555.59
2023-05-11T04:52:43.403Z,98565.63
2023-05-11T04:57:48.649Z,98561.66
2023-05-11T05:02:57.345Z,98558.25
2023-05-11T05:08:07.597Z,98562.72
2023-05-11T05:13:12.895Z,98570.34
2023-05-11T05:18:19.017Z,98565.22
2023-05-11T05:23:28.277Z,98561.50
2023-05-11T05:28:38.120Z,98567.06
2023-05-11T05:33:43.484Z,98573.59
2023-05-11T05:38:51.250Z,98573.53
2023-05-11T05:43:57.888Z,98574.59
2023-05-11T05:49:03.028Z,98579.25
2023-05-11T05:54:11.587Z,98582.44
2023-05-11T05:59:16.918Z,98585.94
2023-05-11T06:04:25.065Z,98580.84
2023-05-11T06:09:36.195Z,98598.03
2023-05-11T06:14:44.803Z,98587.88
2023-05-11T06:19:52.620Z,98593.19
2023-05-11T06:25:09.408Z,98595.13
2023-05-11T06:30:15.822Z,98586.09
2023-05-11T06:35:21.793Z,98590.56
2023-05-11T06:40:29.723Z,98591.72
2023-05-11T06:45:35.169Z,98595.81
2023-05-11T06:50:40.930Z,98594.34
2023-05-11T06:55:52.784Z,98597.16
2023-05-11T07:01:03.592Z,98591.66
2023-05-11T07:06:10.773Z,98596.25
2023-05-11T07:11:19.201Z,98595.50
2023-05-11T07:16:24.933Z,98585.50
2023-05-11T07:21:30.112Z,98589.13
2023-05-11T07:26:37.878Z,98597.06
2023-05-11T07:31:43.218Z,98609.06
2023-05-11T07:36:50.679Z,98603.66
2023-05-11T07:41:59.029Z,98609.19
2023-05-11T07:47:05.627Z,98608.03
2023-05-11T07:52:12.661Z,98607.75
2023-05-11T07:57:22.831Z,98605.00
2023-05-11T08:02:30.373Z,98604.94
2023-05-11T08:07:35.880Z,98621.91
2023-05-11T08:12:43.894Z,98615.28
2023-05-11T08:17:49.301Z,98607.22
2023-05-11T08:22:56.451Z,98617.66
2023-05-11T08:28:04.445Z,98610.41
2023-05-11T08:33:29.003Z,98605.78
2023-05-11T08:38:35.956Z,98600.16
2023-05-11T08:43:44.346Z,98610.91
2023-05-11T08:48:49.902Z,98610.34
2023-05-11T08:54:00.276Z,98604.94
2023-05-11T08:59:11.613Z,98606.22
2023-05-11T09:04:18.533Z,98603.56
2023-05-11T09:09:23.537Z,98606.50
2023-05-11T09:14:31.415Z,98602.25
2023-05-11T09:19:38.577Z,98604.47
2023-05-11T09:24:45.566Z,98593.25
2023-05-11T09:29:56.413Z,98606.28
2023-05-11T09:35:05.868Z,98595.97
2023-05-11T09:40:26.969Z,98589.97
2023-05-11T09:45:43.384Z,98599.31
2023-05-11T09:50:49.207Z,98603.31
2023-05-11T09:55:55.506Z,98590.69
2023-05-11T10:01:06.508Z,98594.78
2023-05-11T10:06:12.251Z,98587.72
2023-05-11T10:11:18.315Z,98589.38
2023-05-11T10:16:27.197Z,98593.31
2023-05-11T10:21:32.797Z,98601.16
2023-05-11T10:26:39.328Z,98585.53
2023-05-11T10:31:51.934Z,98595.25
2023-05-11T10:36:59.418Z,98607.78
2023-05-11T10:42:23.748Z,98601.69
2023-05-11T10:47:56.521Z,98625.50
2023-05-11T10:53:19.053Z,98595.84
2023-05-11T10:58:38.932Z,98587.44
2023-05-11T11:04:02.033Z,98596.22
2023-05-11T11:09:11.462Z,98590.19
2023-05-11T11:14:18.665Z,98596.31
2023-05-11T11:19:45.113Z,98592.78
2023-05-11T11:24:50.175Z,98581.66
2023-05-11T11:30:20.377Z,98587.53
2023-05-11T11:35:52.489Z,98593.88
2023-05-11T11:41:00.114Z,98587.25
2023-05-11T11:46:06.587Z,98593.47
2023-05-11T11:51:15.706Z,98599.56
2023-05-11T11:56:57.148Z,98596.56
2023-05-11T12:02:11.748Z,98614.53
2023-05-11T12:07:24.564Z,98616.41
2023-05-11T12:12:30.358Z,98615.88
2023-05-11T12:17:37.246Z,98612.91
2023-05-11T12:22:45.309Z,98606.16
2023-05-11T12:27:52.793Z,98611.63
2023-05-11T12:32:59.631Z,98617.00
2023-05-11T12:38:07.627Z,98609.84
2023-05-11T12:43:21.094Z,98613.53
2023-05-11T12:48:26.366Z,98612.50
2023-05-11T12:53:39.041Z,98618.28
2023-05-11T12:58:44.972Z,98628.91
2023-05-11T13:03:54.999Z,98619.03
2023-05-11T13:09:09.510Z,98615.84
2023-05-11T13:14:20.749Z,98612.78
2023-05-11T13:19:35.007Z,98614.00
2023-05-11T13:24:42.730Z,98600.63
2023-05-11T13:29:49.164Z,98605.50
2023-05-11T13:34:54.571Z,98600.91
2023-05-11T13:40:03.274Z,98595.78
2023-05-11T13:45:09.753Z,98596.75
2023-05-11T13:50:19.175Z,98589.47
2023-05-11T13:55:26.954Z,98585.91
2023-05-11T14:00:36.250Z,98585.91
2023-05-11T14:05:41.535Z,98580.75
2023-05-11T14:10:49.551Z,98580.63
2023-05-11T14:15:56.162Z,98583.03
2023-05-11T14:21:04.258Z,98588.91
2023-05-11T14:26:13.342Z,98587.59
2023-05-11T14:31:21.710Z,98581.38
2023-05-11T14:36:26.878Z,98586.53
2023-05-11T14:41:35.754Z,98572.16
2023-05-11T14:46:43.362Z,98570.13
2023-05-11T14:51:49.476Z,98569.19
2023-05-11T14:56:59.466Z,98583.22
2023-05-11T15:02:05.393Z,98574.81
2023-05-11T15:07:11.085Z,98580.81
2023-05-11T15:12:18.963Z,98577.88
2023-05-11T15:17:24.357Z,98588.44
2023-05-11T15:22:31.015Z,98588.81
2023-05-11T15:27:39.026Z,98593.50
2023-05-11T15:32:44.129Z,98586.31
2023-05-11T15:37:49.240Z,98594.97
2023-05-11T15:42:58.467Z,98598.91
2023-05-11T15:48:05.133Z,98593.78
2023-05-11T15:53:10.241Z,98603.31
2023-05-11T15:58:18.077Z,98598.00
2023-05-11T16:03:25.512Z,98603.78
2023-05-11T16:08:31.495Z,98601.91
2023-05-11T16:13:40.197Z,98610.94
2023-05-11T16:18:46.682Z,98610.22
2023-05-11T16:23:51.661Z,98606.91
2023-05-11T16:28:59.347Z,98613.38
2023-05-11T16:34:04.472Z,98618.50
2023-05-11T16:39:10.281Z,98608.03
2023-05-11T16:44:18.098Z,98614.63
2023-05-11T16:49:23.151Z,98619.28
2023-05-11T16:54:29.328Z,98615.97
2023-05-11T16:59:37.045Z,98622.34
2023-05-11T17:04:42.350Z,98627.47
2023-05-11T17:09:53.478Z,98632.75
2023-05-11T17:15:01.395Z,98633.03
2023-05-11T17:20:08.111Z,98634.34
2023-05-11T17:25:13.233Z,98632.31
2023-05-11T17:30:22.227Z,98633.66
2023-05-11T17:35:28.936Z,98632.59
2023-05-11T17:40:34.106Z,98645.25
2023-05-11T17:45:41.885Z,98645.41
2023-05-11T17:50:46.949Z,98650.97
2023-05-11T17:55:53.560Z,98662.28
2023-05-11T18:01:01.374Z,98670.81
2023-05-11T18:06:08.090Z,98672.00
2023-05-11T18:11:14.074Z,98676.91
2023-05-11T18:16:22.844Z,98683.09
2023-05-11T18:21:28.376Z,98691.84
2023-05-11T18:26:33.454Z,98692.22
2023-05-11T18:31:41.190Z,98692.22
2023-05-11T18:36:46.504Z,98698.47
2023-05-11T18:41:51.513Z,98709.06
2023-05-11T18:46:59.212Z,98717.22
2023-05-11T18:52:04.372Z,98714.78
2023-05-11T18:57:11.510Z,98716.34
2023-05-11T19:02:19.247Z,98730.38
2023-05-11T19:07:24.377Z,98736.56
2023-05-11T19:12:29.657Z,98750.69
2023-05-11T19:17:37.658Z,98755.50
2023-05-11T19:22:43.389Z,98752.84
2023-05-11T19:27:48.524Z,98752.81
2023-05-11T19:32:56.117Z,98754.22
2023-05-11T19:38:01.173Z,98761.41
2023-05-11T19:43:06.830Z,98761.84
2023-05-11T19:48:15.022Z,98761.63
2023-05-11T19:53:20.040Z,98773.97
2023-05-11T19:58:25.914Z,98770.06
2023-05-11T20:03:36.053Z,98770.94
2023-05-11T20:08:41.237Z,98771.66
2023-05-11T20:13:47.982Z,98769.84
2023-05-11T20:18:55.920Z,98767.50
2023-05-11T20:24:01.126Z,98763.91
2023-05-11T20:29:07.997Z,98758.53
2023-05-11T20:34:15.721Z,98763.69
2023-05-11T20:39:23.618Z,98762.44
2023-05-11T20:44:29.620Z,98761.88
2023-05-11T20:49:39.177Z,98759.00
2023-05-11T20:54:44.845Z,98762.56
2023-05-11T21:05:02.609Z,98757.97
2023-05-11T21:10:08.517Z,98761.66
2023-05-11T21:15:13.626Z,98759.66
2023-05-11T21:20:21.696Z,98765.47
2023-05-11T21:25:26.883Z,98762.69
2023-05-11T21:30:32.001Z,98757.19
2023-05-11T21:35:39.681Z,98757.06
2023-05-11T21:40:47.405Z,98761.22
2023-05-11T21:45:53.442Z,98764.00
2023-05-11T21:51:01.113Z,98756.81
2023-05-11T21:56:10.060Z,98763.66
2023-05-11T22:01:15.294Z,98767.03
2023-05-11T22:06:22.935Z,98771.69
2023-05-11T22:11:27.996Z,98767.69
2023-05-11T22:16:33.279Z,98762.78
2023-05-11T22:21:41.448Z,98761.28
2023-05-11T22:26:46.822Z,98751.06
2023-05-11T22:31:53.951Z,98764.53
2023-05-11T22:37:01.794Z,98764.66
2023-05-11T22:42:07.236Z,98757.16
2023-05-11T22:47:12.322Z,98753.56
2023-05-11T22:52:20.011Z,98760.03
2023-05-11T22:57:25.261Z,98746.22
2023-05-11T23:02:30.691Z,98755.91
2023-05-11T23:07:38.488Z,98757.13
2023-05-11T23:12:43.570Z,98754.91
2023-05-11T23:17:48.695Z,98756.50
2023-05-11T23:22:56.480Z,98755.94
2023-05-11T23:28:03.906Z,98762.31
2023-05-11T23:33:09.640Z,98760.72
2023-05-11T23:38:17.388Z,98748.22
2023-05-11T23:43:26.046Z,98747.81
2023-05-11T23:48:31.352Z,98734.38
2023-05-11T23:53:38.984Z,98736.03
2023-05-11T23:58:45.904Z,98732.53
